createdAt,value
2019-03-29T00:01:56.231Z,14.30
2019-03-29T00:04:23.841Z,15.53
2019-03-29T00:06:53.276Z,13.97
2019-03-29T00:09:20.814Z,15.23
2019-03-29T00:11:48.224Z,15.90
2019-03-29T00:14:15.930Z,14.60
2019-03-29T00:16:43.473Z,14.77
2019-03-29T00:19:10.787Z,14.60
2019-03-29T00:21:39.081Z,15.73
2019-03-29T00:24:07.467Z,16.90
2019-03-29T00:26:34.752Z,16.53
2019-03-29T00:29:03.061Z,16.37
2019-03-29T00:31:30.974Z,17.20
2019-03-29T00:33:59.664Z,16.37
2019-03-29T00:36:27.312Z,16.93
2019-03-29T00:38:55.162Z,17.13
2019-03-29T00:41:22.823Z,16.30
2019-03-29T00:43:50.140Z,16.40
2019-03-29T00:46:17.455Z,17.03
2019-03-29T00:48:45.000Z,16.00
2019-03-29T00:51:12.323Z,17.23
2019-03-29T00:53:39.624Z,16.43
2019-03-29T00:56:07.436Z,16.07
2019-03-29T00:58:35.220Z,15.10
2019-03-29T01:01:02.884Z,15.93
2019-03-29T01:03:30.196Z,16.87
2019-03-29T01:05:57.568Z,15.83
2019-03-29T01:08:25.280Z,15.73
2019-03-29T01:10:52.589Z,16.00
2019-03-29T01:13:20.032Z,15.13
2019-03-29T01:15:47.344Z,16.77
2019-03-29T01:18:14.724Z,15.57
2019-03-29T01:20:42.041Z,16.27
2019-03-29T01:23:09.552Z,16.87
2019-03-29T01:25:37.229Z,17.70
2019-03-29T01:28:04.895Z,15.70
2019-03-29T01:30:32.413Z,17.07
2019-03-29T01:32:59.725Z,16.20
2019-03-29T01:35:27.248Z,16.80
2019-03-29T01:37:54.916Z,16.60
2019-03-29T01:40:22.356Z,16.90
2019-03-29T01:42:49.828Z,16.93
2019-03-29T01:45:17.760Z,18.13
2019-03-29T01:47:45.349Z,16.63
2019-03-29T01:50:14.003Z,17.03
2019-03-29T01:52:41.320Z,17.13
2019-03-29T01:55:09.764Z,17.17
2019-03-29T01:57:37.072Z,16.30
2019-03-29T02:00:05.905Z,18.20
2019-03-29T02:02:33.974Z,18.57
2019-03-29T02:05:01.595Z,17.60
2019-03-29T02:07:29.499Z,18.13
2019-03-29T02:09:57.134Z,17.70
2019-03-29T02:12:24.614Z,18.53
2019-03-29T02:14:52.026Z,18.83
2019-03-29T02:17:19.341Z,18.47
2019-03-29T02:19:47.400Z,17.23
2019-03-29T02:22:14.844Z,18.87
2019-03-29T02:24:42.303Z,17.80
2019-03-29T02:27:09.616Z,17.20
2019-03-29T02:29:37.220Z,17.57
2019-03-29T02:32:04.690Z,17.13
2019-03-29T02:34:32.944Z,17.10
2019-03-29T02:37:01.937Z,18.43
2019-03-29T02:39:29.909Z,15.93
2019-03-29T02:41:57.350Z,17.83
2019-03-29T02:44:24.825Z,18.13
2019-03-29T02:46:53.573Z,17.10
2019-03-29T02:49:21.167Z,16.70
2019-03-29T02:51:48.619Z,17.57
2019-03-29T02:54:15.937Z,17.73
2019-03-29T02:56:43.528Z,17.00
2019-03-29T02:59:10.884Z,17.63
2019-03-29T03:01:38.279Z,17.37
2019-03-29T03:04:05.590Z,17.43
2019-03-29T03:06:33.143Z,17.43
2019-03-29T03:09:13.298Z,17.80
2019-03-29T03:11:29.908Z,17.63
2019-03-29T03:13:57.238Z,16.83
2019-03-29T03:16:24.800Z,17.63
2019-03-29T03:18:52.129Z,17.50
2019-03-29T03:21:19.713Z,17.43
2019-03-29T03:23:47.022Z,16.17
2019-03-29T03:26:14.547Z,16.53
2019-03-29T03:28:42.105Z,16.03
2019-03-29T03:31:09.489Z,17.43
2019-03-29T03:33:37.004Z,16.93
2019-03-29T03:36:04.861Z,16.47
2019-03-29T03:38:32.227Z,16.30
2019-03-29T03:41:00.444Z,17.07
2019-03-29T03:43:27.749Z,16.53
2019-03-29T03:45:55.073Z,16.70
2019-03-29T03:48:22.755Z,17.00
2019-03-29T03:50:50.662Z,18.07
2019-03-29T03:53:17.957Z,18.20
2019-03-29T03:55:45.299Z,17.37
2019-03-29T03:58:13.283Z,17.30
2019-03-29T04:00:57.262Z,18.83
2019-03-29T04:03:25.104Z,19.67
2019-03-29T04:05:52.410Z,19.37
2019-03-29T04:08:20.021Z,18.67
2019-03-29T04:10:47.405Z,18.97
2019-03-29T04:13:14.716Z,19.03
2019-03-29T04:15:42.300Z,20.07
2019-03-29T04:18:09.837Z,17.50
2019-03-29T04:20:37.228Z,18.10
2019-03-29T04:23:04.958Z,18.20
2019-03-29T04:25:32.259Z,18.93
2019-03-29T04:28:00.275Z,18.40
2019-03-29T04:30:27.737Z,18.00
2019-03-29T04:32:55.581Z,16.87
2019-03-29T04:35:23.045Z,17.57
2019-03-29T04:37:50.357Z,17.30
2019-03-29T04:40:18.573Z,17.50
2019-03-29T04:42:46.443Z,18.27
2019-03-29T04:45:13.750Z,17.27
2019-03-29T04:47:41.076Z,17.13
2019-03-29T04:50:08.627Z,17.10
2019-03-29T04:52:35.992Z,16.37
2019-03-29T04:55:04.468Z,17.73
2019-03-29T04:57:32.202Z,17.30
2019-03-29T04:59:59.693Z,18.40
2019-03-29T05:02:27.153Z,17.17
2019-03-29T05:04:54.461Z,16.97
2019-03-29T05:07:22.433Z,16.90
2019-03-29T05:09:49.911Z,23.50
2019-03-29T05:12:17.211Z,28.33
2019-03-29T05:14:44.525Z,19.27
2019-03-29T05:17:11.891Z,18.83
2019-03-29T05:19:39.292Z,17.57
2019-03-29T05:22:06.954Z,18.07
2019-03-29T05:24:34.959Z,17.00
2019-03-29T05:27:02.274Z,16.47
2019-03-29T05:29:29.935Z,16.87
2019-03-29T05:31:58.027Z,16.30
2019-03-29T05:34:25.468Z,16.77
2019-03-29T05:36:53.434Z,16.83
2019-03-29T05:39:20.984Z,22.27
2019-03-29T05:41:48.440Z,42.97
2019-03-29T05:44:16.321Z,24.83
2019-03-29T05:46:44.176Z,15.77
2019-03-29T05:49:11.484Z,16.43
2019-03-29T05:51:38.804Z,15.50
2019-03-29T05:54:06.823Z,15.70
2019-03-29T05:56:34.132Z,21.37
2019-03-29T05:59:01.890Z,17.37
2019-03-29T06:01:29.200Z,15.23
2019-03-29T06:03:56.512Z,16.50
2019-03-29T06:06:24.837Z,15.53
2019-03-29T06:08:52.725Z,15.30
2019-03-29T06:11:20.068Z,15.07
2019-03-29T06:13:47.460Z,23.33
2019-03-29T06:16:15.294Z,23.17
2019-03-29T06:18:42.592Z,18.33
2019-03-29T06:21:10.188Z,15.97
2019-03-29T06:23:37.646Z,16.03
2019-03-29T06:26:05.036Z,15.40
2019-03-29T06:28:32.345Z,15.97
2019-03-29T06:30:59.664Z,14.87
2019-03-29T06:33:27.892Z,15.40
2019-03-29T06:35:55.926Z,31.73
2019-03-29T06:38:23.767Z,21.20
2019-03-29T06:41:02.275Z,31.93
2019-03-29T06:43:20.713Z,17.83
2019-03-29T06:45:48.542Z,12.93
2019-03-29T06:48:16.768Z,13.13
2019-03-29T06:50:44.186Z,12.10
2019-03-29T06:53:11.536Z,12.70
2019-03-29T06:55:38.916Z,12.80
2019-03-29T06:58:06.228Z,13.00
2019-03-29T07:00:33.540Z,11.67
2019-03-29T07:03:00.917Z,12.10
2019-03-29T07:05:28.259Z,12.90
2019-03-29T07:07:55.768Z,11.70
2019-03-29T07:10:23.804Z,11.50
2019-03-29T07:12:51.359Z,11.47
2019-03-29T07:15:18.720Z,11.63
2019-03-29T07:17:46.152Z,11.83
2019-03-29T07:20:15.881Z,11.67
2019-03-29T07:22:43.549Z,11.37
2019-03-29T07:25:10.928Z,11.27
2019-03-29T07:27:44.766Z,11.83
2019-03-29T07:30:07.609Z,10.80
2019-03-29T07:32:34.928Z,20.75
2019-03-29T07:35:03.702Z,17.48
2019-03-29T07:37:31.549Z,12.07
2019-03-29T07:39:59.829Z,11.08
2019-03-29T07:42:27.268Z,10.53
2019-03-29T07:44:54.584Z,11.12
2019-03-29T07:47:22.189Z,10.55
2019-03-29T07:49:49.510Z,10.10
2019-03-29T07:52:16.875Z,10.05
2019-03-29T07:54:44.827Z,10.20
2019-03-29T07:57:12.829Z,10.53
2019-03-29T07:59:40.147Z,10.20
2019-03-29T08:02:07.524Z,10.05
2019-03-29T08:04:34.905Z,9.78
2019-03-29T08:07:02.300Z,10.20
2019-03-29T08:09:29.698Z,9.28
2019-03-29T08:11:57.012Z,10.98
2019-03-29T08:14:24.888Z,9.40
2019-03-29T08:16:52.184Z,8.43
2019-03-29T08:19:19.543Z,7.87
2019-03-29T08:21:47.051Z,7.45
2019-03-29T08:24:14.856Z,8.13
2019-03-29T08:26:42.528Z,7.65
2019-03-29T08:29:09.831Z,7.30
2019-03-29T08:31:37.375Z,7.05
2019-03-29T08:34:04.864Z,7.28
2019-03-29T08:36:32.166Z,6.47
2019-03-29T08:38:59.608Z,5.72
2019-03-29T08:41:26.916Z,6.35
2019-03-29T08:43:54.477Z,5.65
2019-03-29T08:46:21.804Z,5.97
2019-03-29T08:48:49.393Z,5.10
2019-03-29T08:51:16.694Z,5.80
2019-03-29T08:53:44.296Z,5.47
2019-03-29T08:56:12.222Z,6.05
2019-03-29T08:58:39.608Z,5.42
2019-03-29T09:01:06.913Z,5.25
2019-03-29T09:03:34.990Z,5.05
2019-03-29T09:06:02.883Z,5.95
2019-03-29T09:08:30.240Z,5.45
2019-03-29T09:10:57.788Z,5.05
2019-03-29T09:13:25.172Z,12.37
2019-03-29T09:15:52.864Z,5.42
2019-03-29T09:18:20.165Z,5.10
2019-03-29T09:20:47.485Z,4.35
2019-03-29T09:23:15.004Z,4.50
2019-03-29T09:25:42.400Z,4.35
2019-03-29T09:28:09.702Z,4.40
2019-03-29T09:30:37.365Z,4.30
2019-03-29T09:33:04.672Z,3.98
2019-03-29T09:35:32.276Z,4.00
2019-03-29T09:37:59.584Z,3.90
2019-03-29T09:40:27.398Z,4.28
2019-03-29T09:43:06.672Z,3.52
2019-03-29T09:45:23.945Z,4.12
2019-03-29T09:47:51.832Z,3.52
2019-03-29T09:50:22.727Z,4.20
2019-03-29T09:52:51.282Z,3.50
2019-03-29T09:55:19.231Z,3.52
2019-03-29T09:57:47.571Z,2.67
2019-03-29T10:00:22.398Z,3.80
2019-03-29T10:02:44.266Z,3.27
2019-03-29T10:05:11.671Z,2.90
2019-03-29T10:07:40.060Z,2.67
2019-03-29T10:10:08.559Z,2.87
2019-03-29T10:12:43.390Z,2.72
2019-03-29T10:15:06.491Z,2.37
2019-03-29T10:17:33.970Z,2.62
2019-03-29T10:20:01.295Z,3.00
2019-03-29T10:22:28.671Z,2.92
2019-03-29T10:24:56.128Z,3.02
2019-03-29T10:27:23.427Z,3.20
2019-03-29T10:29:50.883Z,2.85
2019-03-29T10:32:18.294Z,2.95
2019-03-29T10:34:46.178Z,2.60
2019-03-29T10:37:13.724Z,2.70
2019-03-29T10:39:41.281Z,2.72
2019-03-29T10:42:08.585Z,2.58
2019-03-29T10:44:35.891Z,2.77
2019-03-29T10:47:03.448Z,2.95
2019-03-29T10:49:30.758Z,3.02
2019-03-29T10:51:58.343Z,2.87
2019-03-29T10:54:25.787Z,2.60
2019-03-29T10:56:53.089Z,2.62
2019-03-29T10:59:27.278Z,2.85
2019-03-29T11:01:49.543Z,2.70
2019-03-29T11:04:17.266Z,2.30
2019-03-29T11:06:44.636Z,3.05
2019-03-29T11:09:11.945Z,2.87
2019-03-29T11:11:39.246Z,2.60
2019-03-29T11:14:06.881Z,2.52
2019-03-29T11:16:34.181Z,2.87
2019-03-29T11:19:01.717Z,2.72
2019-03-29T11:21:29.038Z,2.52
2019-03-29T11:23:56.502Z,2.83
2019-03-29T11:26:23.804Z,2.62
2019-03-29T11:28:52.104Z,2.17
2019-03-29T11:31:19.718Z,2.20
2019-03-29T11:33:47.016Z,2.20
2019-03-29T11:36:14.573Z,2.77
2019-03-29T11:38:42.455Z,2.45
2019-03-29T11:41:09.765Z,4.08
2019-03-29T11:43:37.365Z,3.75
2019-03-29T11:46:05.025Z,3.10
2019-03-29T11:48:33.041Z,3.50
2019-03-29T11:51:00.378Z,3.37
2019-03-29T11:53:27.806Z,4.00
2019-03-29T11:55:55.263Z,3.55
2019-03-29T11:58:22.916Z,9.50
2019-03-29T12:00:50.378Z,3.50
2019-03-29T12:03:17.752Z,3.22
2019-03-29T12:05:45.065Z,2.90
2019-03-29T12:08:12.532Z,3.17
2019-03-29T12:10:39.979Z,3.42
2019-03-29T12:13:07.861Z,3.40
2019-03-29T12:15:35.518Z,3.45
2019-03-29T12:18:02.985Z,3.45
2019-03-29T12:20:30.292Z,3.80
2019-03-29T12:22:57.601Z,3.40
2019-03-29T12:25:25.141Z,15.48
2019-03-29T12:27:52.443Z,4.17
2019-03-29T12:30:31.395Z,4.10
2019-03-29T12:32:49.353Z,3.83
2019-03-29T12:35:16.659Z,3.77
2019-03-29T12:37:43.968Z,3.83
2019-03-29T12:40:12.133Z,3.33
2019-03-29T12:42:39.429Z,3.20
2019-03-29T12:45:07.013Z,3.08
2019-03-29T12:47:34.486Z,3.02
2019-03-29T12:50:01.973Z,3.27
2019-03-29T12:52:29.428Z,2.72
2019-03-29T12:54:56.729Z,2.90
2019-03-29T12:57:24.058Z,3.58
2019-03-29T12:59:51.570Z,3.60
2019-03-29T13:02:18.870Z,3.30
2019-03-29T13:04:47.411Z,3.10
2019-03-29T13:07:14.957Z,3.17
2019-03-29T13:09:42.276Z,2.75
2019-03-29T13:12:09.868Z,2.95
2019-03-29T13:14:37.175Z,3.22
2019-03-29T13:17:04.779Z,2.70
2019-03-29T13:19:32.236Z,2.90
2019-03-29T13:21:59.604Z,3.00
2019-03-29T13:24:27.340Z,2.55
2019-03-29T13:26:54.996Z,2.50
2019-03-29T13:29:22.300Z,2.50
2019-03-29T13:31:50.251Z,2.30
2019-03-29T13:34:17.778Z,2.45
2019-03-29T13:36:45.085Z,3.98
2019-03-29T13:39:12.895Z,4.28
2019-03-29T13:41:40.353Z,2.67
2019-03-29T13:44:07.660Z,2.40
2019-03-29T13:46:35.053Z,2.62
2019-03-29T13:49:02.723Z,2.80
2019-03-29T13:51:30.203Z,2.60
2019-03-29T13:53:57.832Z,2.33
2019-03-29T13:56:25.293Z,2.45
2019-03-29T13:58:53.163Z,2.40
2019-03-29T14:01:20.608Z,2.45
2019-03-29T14:03:47.916Z,2.20
2019-03-29T14:06:15.731Z,5.90
2019-03-29T14:08:43.185Z,8.18
2019-03-29T14:11:10.492Z,2.53
2019-03-29T14:13:37.885Z,2.30
2019-03-29T14:16:05.195Z,1.98
2019-03-29T14:18:32.617Z,2.40
2019-03-29T14:21:00.040Z,2.12
2019-03-29T14:23:27.344Z,2.17
2019-03-29T14:25:54.754Z,2.30
2019-03-29T14:28:22.066Z,2.70
2019-03-29T14:30:49.367Z,2.43
2019-03-29T14:33:17.140Z,2.40
2019-03-29T14:35:44.432Z,2.40
2019-03-29T14:38:12.013Z,2.67
2019-03-29T14:40:40.023Z,2.07
2019-03-29T14:43:07.349Z,2.20
2019-03-29T14:45:34.641Z,1.90
2019-03-29T14:48:02.481Z,1.60
2019-03-29T14:50:29.922Z,2.67
2019-03-29T14:52:57.220Z,4.80
2019-03-29T14:55:24.847Z,2.23
2019-03-29T14:57:52.285Z,1.90
2019-03-29T15:00:21.395Z,2.17
2019-03-29T15:02:48.691Z,2.10
2019-03-29T15:05:16.515Z,1.80
2019-03-29T15:07:43.965Z,2.20
2019-03-29T15:10:27.600Z,1.70
2019-03-29T15:12:55.376Z,1.97
2019-03-29T15:15:22.692Z,1.90
2019-03-29T15:17:50.372Z,2.10
2019-03-29T15:20:17.673Z,2.10
2019-03-29T15:22:45.281Z,2.60
2019-03-29T15:25:13.144Z,2.50
2019-03-29T15:27:40.448Z,2.87
2019-03-29T15:30:08.180Z,2.60
2019-03-29T15:32:35.492Z,2.97
2019-03-29T15:35:03.079Z,3.13
2019-03-29T15:37:30.629Z,2.63
2019-03-29T15:39:58.284Z,2.40
2019-03-29T15:42:25.584Z,2.43
2019-03-29T15:44:53.407Z,2.27
2019-03-29T15:47:20.852Z,3.23
2019-03-29T15:49:55.898Z,2.60
2019-03-29T15:52:17.420Z,2.20
2019-03-29T15:54:44.728Z,2.17
2019-03-29T15:57:12.317Z,7.30
2019-03-29T15:59:39.853Z,3.50
2019-03-29T16:02:07.433Z,2.83
2019-03-29T16:04:34.739Z,2.57
2019-03-29T16:07:02.382Z,3.00
2019-03-29T16:09:29.724Z,2.80
2019-03-29T16:11:57.040Z,2.97
2019-03-29T16:14:24.503Z,6.33
2019-03-29T16:16:51.813Z,3.97
2019-03-29T16:19:19.831Z,3.23
2019-03-29T16:21:47.136Z,8.53
2019-03-29T16:24:14.545Z,5.27
2019-03-29T16:26:42.396Z,3.73
2019-03-29T16:29:09.705Z,3.60
2019-03-29T16:31:37.312Z,3.37
2019-03-29T16:34:04.616Z,3.40
2019-03-29T16:36:32.005Z,3.40
2019-03-29T16:38:59.392Z,3.70
2019-03-29T16:41:26.933Z,3.67
2019-03-29T16:43:54.388Z,3.97
2019-03-29T16:46:21.859Z,5.40
2019-03-29T16:48:49.190Z,5.87
2019-03-29T16:51:17.068Z,4.50
2019-03-29T16:53:44.410Z,4.30
2019-03-29T16:56:12.231Z,3.97
2019-03-29T16:58:40.136Z,4.50
2019-03-29T17:01:07.801Z,4.30
2019-03-29T17:03:35.676Z,4.67
2019-03-29T17:06:03.005Z,4.73
2019-03-29T17:08:30.299Z,4.60
2019-03-29T17:10:57.829Z,5.10
2019-03-29T17:13:25.483Z,5.47
2019-03-29T17:16:01.650Z,5.37
2019-03-29T17:18:29.121Z,5.13
2019-03-29T17:20:51.225Z,5.30
2019-03-29T17:23:18.736Z,5.80
2019-03-29T17:25:46.057Z,5.67
2019-03-29T17:28:13.713Z,6.83
2019-03-29T17:30:43.010Z,6.77
2019-03-29T17:33:10.296Z,7.63
2019-03-29T17:35:37.736Z,6.87
2019-03-29T17:38:05.156Z,7.43
2019-03-29T17:40:32.846Z,6.43
2019-03-29T17:43:00.338Z,6.53
2019-03-29T17:45:27.937Z,6.87
2019-03-29T17:47:55.261Z,7.67
2019-03-29T17:50:25.319Z,7.50
2019-03-29T17:52:51.903Z,10.93
2019-03-29T17:55:19.204Z,7.37
2019-03-29T17:57:47.141Z,7.33
2019-03-29T18:00:17.352Z,6.97
2019-03-29T18:02:44.751Z,7.00
2019-03-29T18:05:12.918Z,7.20
2019-03-29T18:07:40.577Z,8.27
2019-03-29T18:10:09.044Z,12.50
2019-03-29T18:12:36.672Z,13.33
2019-03-29T18:15:05.356Z,12.90
2019-03-29T18:17:32.854Z,19.30
2019-03-29T18:20:00.370Z,30.30
2019-03-29T18:22:27.940Z,31.33
2019-03-29T18:24:55.252Z,35.63
2019-03-29T18:27:22.699Z,34.57
2019-03-29T18:29:50.029Z,31.23
2019-03-29T18:32:19.017Z,32.57
2019-03-29T18:34:46.338Z,43.10
2019-03-29T18:37:14.116Z,35.90
2019-03-29T18:39:41.798Z,22.73
2019-03-29T18:42:09.788Z,20.33
2019-03-29T18:44:37.331Z,21.73
2019-03-29T18:47:04.703Z,19.07
2019-03-29T18:49:32.053Z,16.73
2019-03-29T18:51:59.512Z,15.43
2019-03-29T18:54:27.530Z,16.03
2019-03-29T18:56:55.216Z,15.40
2019-03-29T18:59:22.524Z,11.73
2019-03-29T19:01:50.152Z,12.03
2019-03-29T19:04:17.469Z,11.63
2019-03-29T19:06:45.035Z,11.63
2019-03-29T19:09:12.492Z,11.53
2019-03-29T19:11:39.933Z,11.60
2019-03-29T19:14:07.425Z,10.67
2019-03-29T19:16:34.740Z,11.27
2019-03-29T19:19:09.880Z,11.20
2019-03-29T19:21:31.976Z,11.17
2019-03-29T19:23:59.391Z,11.33
2019-03-29T19:26:26.980Z,10.73
2019-03-29T19:28:54.600Z,11.80
2019-03-29T19:31:22.488Z,10.50
2019-03-29T19:33:50.934Z,10.93
2019-03-29T19:36:18.245Z,12.40
2019-03-29T19:38:45.555Z,10.77
2019-03-29T19:41:13.096Z,10.40
2019-03-29T19:43:40.549Z,11.97
2019-03-29T19:46:07.857Z,11.37
2019-03-29T19:48:35.284Z,12.10
2019-03-29T19:51:02.800Z,10.70
2019-03-29T19:53:30.210Z,31.50
2019-03-29T19:55:58.195Z,16.60
2019-03-29T19:58:25.904Z,11.10
2019-03-29T20:00:53.208Z,10.20
2019-03-29T20:03:20.858Z,10.13
2019-03-29T20:05:48.367Z,10.40
2019-03-29T20:08:15.935Z,10.77
2019-03-29T20:10:43.595Z,10.47
2019-03-29T20:13:11.057Z,10.17
2019-03-29T20:15:39.036Z,10.60
2019-03-29T20:18:06.570Z,9.50
2019-03-29T20:20:33.947Z,10.23
2019-03-29T20:23:02.512Z,9.33
2019-03-29T20:25:29.820Z,10.00
2019-03-29T20:27:58.609Z,9.57
2019-03-29T20:30:26.929Z,9.80
2019-03-29T20:32:54.296Z,10.37
2019-03-29T20:35:21.828Z,9.97
2019-03-29T20:37:49.226Z,10.20
2019-03-29T20:40:16.600Z,10.07
2019-03-29T20:42:44.068Z,10.37
2019-03-29T20:45:12.248Z,9.87
2019-03-29T20:47:42.413Z,10.03
2019-03-29T20:50:09.034Z,10.67
2019-03-29T20:52:36.539Z,10.30
2019-03-29T20:55:05.572Z,10.60
2019-03-29T20:57:32.888Z,10.27
2019-03-29T21:00:00.483Z,11.23
2019-03-29T21:02:27.822Z,10.90
2019-03-29T21:04:55.932Z,9.87
2019-03-29T21:07:23.255Z,10.20
2019-03-29T21:09:50.712Z,10.60
2019-03-29T21:12:18.168Z,11.10
2019-03-29T21:14:45.553Z,11.57
2019-03-29T21:17:13.284Z,10.40
2019-03-29T21:19:40.588Z,10.57
2019-03-29T21:22:07.901Z,11.00
2019-03-29T21:24:35.470Z,11.10
2019-03-29T21:27:02.811Z,9.47
2019-03-29T21:29:30.104Z,9.00
2019-03-29T21:31:57.619Z,9.07
2019-03-29T21:34:24.929Z,8.27
2019-03-29T21:36:52.315Z,8.83
2019-03-29T21:39:19.778Z,7.33
2019-03-29T21:41:47.465Z,7.07
2019-03-29T21:44:14.881Z,7.23
2019-03-29T21:46:42.339Z,6.20
2019-03-29T21:49:09.665Z,6.40
2019-03-29T21:51:37.245Z,6.53
2019-03-29T21:54:04.605Z,7.00
2019-03-29T21:56:31.905Z,6.27
2019-03-29T21:58:59.412Z,6.03
2019-03-29T22:01:26.719Z,5.83
2019-03-29T22:03:54.027Z,6.07
2019-03-29T22:06:21.404Z,5.83
2019-03-29T22:08:48.967Z,5.27
2019-03-29T22:11:16.491Z,5.43
2019-03-29T22:13:43.805Z,5.13
2019-03-29T22:16:11.108Z,5.93
2019-03-29T22:18:38.650Z,5.83
2019-03-29T22:21:05.981Z,6.10
2019-03-29T22:23:33.805Z,5.77
2019-03-29T22:26:01.564Z,5.43
2019-03-29T22:28:29.085Z,6.37
2019-03-29T22:30:56.385Z,6.97
2019-03-29T22:33:24.000Z,6.83
2019-03-29T22:35:51.304Z,6.53
2019-03-29T22:38:18.872Z,6.47
2019-03-29T22:40:46.339Z,6.60
2019-03-29T22:43:13.817Z,6.80
2019-03-29T22:45:41.130Z,7.10
2019-03-29T22:48:08.732Z,6.43
2019-03-29T22:50:36.035Z,6.37
2019-03-29T22:53:03.678Z,6.03
2019-03-29T22:55:30.976Z,6.27
2019-03-29T22:57:58.559Z,6.13
2019-03-29T23:00:38.232Z,6.27
2019-03-29T23:03:06.436Z,6.10
2019-03-29T23:05:33.776Z,6.20
2019-03-29T23:08:01.274Z,6.63
2019-03-29T23:10:28.836Z,6.17
2019-03-29T23:12:56.144Z,6.20
2019-03-29T23:15:23.648Z,6.80
2019-03-29T23:17:51.092Z,7.70
2019-03-29T23:20:18.397Z,6.93
2019-03-29T23:22:45.812Z,7.33
2019-03-29T23:25:13.294Z,7.80
2019-03-29T23:27:40.604Z,7.87
2019-03-29T23:30:08.395Z,26.07
2019-03-29T23:32:35.832Z,9.57
2019-03-29T23:35:04.055Z,8.63
2019-03-29T23:37:31.366Z,7.90
2019-03-29T23:39:59.032Z,8.03
2019-03-29T23:42:26.383Z,8.20
2019-03-29T23:44:53.704Z,8.30
2019-03-29T23:47:21.387Z,7.50
2019-03-29T23:49:49.867Z,7.20
2019-03-29T23:52:17.182Z,7.47
2019-03-29T23:54:44.484Z,7.30
2019-03-29T23:57:12.025Z,6.70
2019-03-29T23:59:39.388Z,6.80
